DIBK

Bouaké Airport

Côte D’Ivoire
METAR DIBK 160000Z 22004KT 8000 NSC 23/18 Q1017 NOSIG
Observed Flight Rules
Dec-16 @ 00:00 UTC (2 hours ago) Marginal Visual Flight Rules
Wind Visibility Clouds
220° at 4 knots 7,998 meters
  • Clear skies
Temperatures Readings
Current 23°C / 73°F
Dewpoint 18°C / 64°F
Humidity 74%
Altimeter 30.03" Hg
Pressure 1017 hPa
Elevation 376
METAR DIBK 160000Z 22004KT 8000 NSC 23/18 Q1017 NOSIG
Observed Flight Rules
Dec-16 @ 00:00 UTC
(2 hours ago)
MVFR
Wind Visibility
220° at 4 knots 7,998 meters
Clouds
  • Clear skies
Temperature Dewpoint
23°C / 73°F 18°C / 64°F
Humidity Altimeter Pressure
74% 30.03" Hg 1017 hPa